createdAt,value
2022-09-22T00:01:23.483Z,10.00
2022-09-22T00:03:54.382Z,10.00
2022-09-22T00:06:32.945Z,10.00
2022-09-22T00:09:01.307Z,10.10
2022-09-22T00:11:30.737Z,9.90
2022-09-22T00:14:08.071Z,9.90
2022-09-22T00:16:45.187Z,9.90
2022-09-22T00:19:16.370Z,9.90
2022-09-22T00:21:44.148Z,9.80
2022-09-22T00:24:11.496Z,9.80
2022-09-22T00:26:38.777Z,9.80
2022-09-22T00:29:10.302Z,9.80
2022-09-22T00:31:39.214Z,9.70
2022-09-22T00:34:07.917Z,9.70
2022-09-22T00:36:35.040Z,9.70
2022-09-22T00:39:02.413Z,9.70
2022-09-22T00:41:31.936Z,9.90
2022-09-22T00:44:26.891Z,9.90
2022-09-22T00:46:56.726Z,9.60
2022-09-22T00:49:36.102Z,9.60
2022-09-22T00:52:03.233Z,9.50
2022-09-22T00:54:30.171Z,9.50
2022-09-22T00:57:09.213Z,9.60
2022-09-22T00:59:37.065Z,9.50
2022-09-22T01:02:04.356Z,9.60
2022-09-22T01:04:31.332Z,9.40
2022-09-22T01:06:59.444Z,9.40
2022-09-22T01:09:28.108Z,9.40
2022-09-22T01:11:55.064Z,9.40
2022-09-22T01:14:40.727Z,9.40
2022-09-22T01:17:13.435Z,9.40
2022-09-22T01:20:12.243Z,9.40
2022-09-22T01:23:03.645Z,9.40
2022-09-22T01:25:39.641Z,9.40
2022-09-22T01:28:25.082Z,9.30
2022-09-22T01:31:24.062Z,9.30
2022-09-22T01:34:15.026Z,9.30
2022-09-22T01:37:02.790Z,9.20
2022-09-22T01:39:41.784Z,9.20
2022-09-22T01:42:21.868Z,9.20
2022-09-22T01:44:54.217Z,9.20
2022-09-22T01:47:48.732Z,9.10
2022-09-22T01:50:42.853Z,9.10
2022-09-22T01:53:14.264Z,9.10
2022-09-22T01:55:47.655Z,9.10
2022-09-22T01:58:21.674Z,9.10
2022-09-22T02:00:59.545Z,9.10
2022-09-22T02:03:38.838Z,9.10
2022-09-22T02:06:54.130Z,9.10
2022-09-22T02:09:24.794Z,9.10
2022-09-22T02:11:51.765Z,9.00
2022-09-22T02:14:19.042Z,9.00
2022-09-22T02:16:46.142Z,9.00
2022-09-22T02:19:20.517Z,9.00
2022-09-22T02:21:48.465Z,9.10
2022-09-22T02:24:34.065Z,9.00
2022-09-22T02:27:06.058Z,9.00
2022-09-22T02:29:35.851Z,9.10
2022-09-22T02:32:07.750Z,9.10
2022-09-22T02:34:34.837Z,9.10
2022-09-22T02:37:16.601Z,9.10
2022-09-22T02:40:04.419Z,9.10
2022-09-22T02:42:39.902Z,9.10
2022-09-22T02:45:13.696Z,9.20
2022-09-22T02:47:47.429Z,9.20
2022-09-22T02:50:17.287Z,9.20
2022-09-22T02:52:44.293Z,9.20
2022-09-22T02:55:13.436Z,9.20
2022-09-22T02:57:40.489Z,9.30
2022-09-22T03:00:07.924Z,9.20
2022-09-22T03:02:34.764Z,9.20
2022-09-22T03:05:02.062Z,9.40
2022-09-22T03:07:29.004Z,9.20
2022-09-22T03:09:55.822Z,9.20
2022-09-22T03:12:22.663Z,9.10
2022-09-22T03:14:52.304Z,9.30
2022-09-22T03:17:19.133Z,9.30
2022-09-22T03:19:45.961Z,9.10
2022-09-22T03:22:12.817Z,9.30
2022-09-22T03:24:39.868Z,9.10
2022-09-22T03:27:06.706Z,9.00
2022-09-22T03:29:33.494Z,9.00
2022-09-22T03:32:00.309Z,9.20
2022-09-22T03:34:27.256Z,9.00
2022-09-22T03:36:54.100Z,8.90
2022-09-22T03:39:21.247Z,8.90
2022-09-22T03:41:48.522Z,8.90
2022-09-22T03:44:15.361Z,8.80
2022-09-22T03:46:42.150Z,9.10
2022-09-22T03:49:09.382Z,9.10
2022-09-22T03:51:36.528Z,8.80
2022-09-22T03:54:03.814Z,8.80
2022-09-22T03:56:30.653Z,8.80
2022-09-22T03:58:57.468Z,8.70
2022-09-22T04:01:25.080Z,8.70
2022-09-22T04:03:52.236Z,8.70
2022-09-22T04:06:19.157Z,8.70
2022-09-22T04:08:46.002Z,8.70
2022-09-22T04:11:12.947Z,8.60
2022-09-22T04:13:45.970Z,8.60
2022-09-22T04:16:13.561Z,8.60
2022-09-22T04:18:40.490Z,8.60
2022-09-22T04:21:08.190Z,8.50
2022-09-22T04:23:35.276Z,8.50
2022-09-22T04:26:02.831Z,8.50
2022-09-22T04:28:30.229Z,8.50
2022-09-22T04:30:57.522Z,8.40
2022-09-22T04:33:25.179Z,8.40
2022-09-22T04:35:52.758Z,8.40
2022-09-22T04:38:19.999Z,8.40
2022-09-22T04:40:46.919Z,8.60
2022-09-22T04:43:13.716Z,8.40
2022-09-22T04:45:42.450Z,8.40
2022-09-22T04:48:09.270Z,8.40
2022-09-22T04:50:36.092Z,8.30
2022-09-22T04:53:02.943Z,8.30
2022-09-22T04:55:31.011Z,8.30
2022-09-22T04:57:58.144Z,8.30
2022-09-22T05:00:26.900Z,8.30
2022-09-22T05:02:54.278Z,8.30
2022-09-22T05:05:21.776Z,8.40
2022-09-22T05:07:51.921Z,8.40
2022-09-22T05:10:18.815Z,8.40
2022-09-22T05:12:46.001Z,8.40
2022-09-22T05:15:15.349Z,8.50
2022-09-22T05:17:54.498Z,8.50
2022-09-22T05:20:22.095Z,8.50
2022-09-22T05:22:49.718Z,8.60
2022-09-22T05:25:18.951Z,8.60
2022-09-22T05:27:54.023Z,8.70
2022-09-22T05:30:24.208Z,8.80
2022-09-22T05:32:51.905Z,9.10
2022-09-22T05:35:21.823Z,9.00
2022-09-22T05:37:50.477Z,9.50
2022-09-22T05:40:18.536Z,9.20
2022-09-22T05:42:51.421Z,9.40
2022-09-22T05:45:19.985Z,9.40
2022-09-22T05:47:47.037Z,9.60
2022-09-22T05:50:15.698Z,9.80
2022-09-22T05:52:42.859Z,9.70
2022-09-22T05:55:10.948Z,9.80
2022-09-22T05:57:37.946Z,9.90
2022-09-22T06:00:06.688Z,9.90
2022-09-22T06:02:33.662Z,10.00
2022-09-22T06:05:01.038Z,10.40
2022-09-22T06:07:28.050Z,10.10
2022-09-22T06:09:54.953Z,10.80
2022-09-22T06:12:22.437Z,11.50
2022-09-22T06:14:49.379Z,12.70
2022-09-22T06:17:16.449Z,13.80
2022-09-22T06:19:43.677Z,14.90
2022-09-22T06:22:11.634Z,16.30
2022-09-22T06:24:38.747Z,17.10
2022-09-22T06:27:05.695Z,17.90
2022-09-22T06:29:32.593Z,18.70
2022-09-22T06:31:59.521Z,19.60
2022-09-22T06:34:27.395Z,20.20
2022-09-22T06:36:57.143Z,20.90
2022-09-22T06:39:24.083Z,21.40
2022-09-22T06:41:51.454Z,21.40
2022-09-22T06:44:18.356Z,20.70
2022-09-22T06:46:45.812Z,19.70
2022-09-22T06:49:19.918Z,18.70
2022-09-22T06:51:52.537Z,17.80
2022-09-22T06:54:22.359Z,17.00
2022-09-22T06:56:51.167Z,16.40
2022-09-22T06:59:18.097Z,15.90
2022-09-22T07:01:45.909Z,15.50
2022-09-22T07:04:13.462Z,15.10
2022-09-22T07:06:41.511Z,14.90
2022-09-22T07:09:09.367Z,14.60
2022-09-22T07:11:40.132Z,14.50
2022-09-22T07:14:09.181Z,14.30
2022-09-22T07:16:36.557Z,14.20
2022-09-22T07:19:05.762Z,14.00
2022-09-22T07:21:35.281Z,14.00
2022-09-22T07:24:02.507Z,13.90
2022-09-22T07:26:32.668Z,13.90
2022-09-22T07:29:06.062Z,13.90
2022-09-22T07:31:34.800Z,13.80
2022-09-22T07:34:03.672Z,13.80
2022-09-22T07:36:32.928Z,13.80
2022-09-22T07:39:08.473Z,13.90
2022-09-22T07:41:43.096Z,14.10
2022-09-22T07:44:32.101Z,14.20
2022-09-22T07:47:05.486Z,14.30
2022-09-22T07:49:34.573Z,14.50
2022-09-22T07:52:01.661Z,14.60
2022-09-22T07:54:35.416Z,14.90
2022-09-22T07:57:09.230Z,15.10
2022-09-22T07:59:37.572Z,15.40
2022-09-22T08:02:10.442Z,15.60
2022-09-22T08:04:37.500Z,15.80
2022-09-22T08:07:04.588Z,16.10
2022-09-22T08:09:33.434Z,16.20
2022-09-22T08:12:01.470Z,16.40
2022-09-22T08:14:30.331Z,16.50
2022-09-22T08:16:57.523Z,16.50
2022-09-22T08:19:24.743Z,16.60
2022-09-22T08:21:54.099Z,16.60
2022-09-22T08:24:22.876Z,16.70
2022-09-22T08:26:52.468Z,16.70
2022-09-22T08:29:20.213Z,16.70
2022-09-22T08:31:47.912Z,16.70
2022-09-22T08:34:18.615Z,16.60
2022-09-22T08:36:47.249Z,16.60
2022-09-22T08:39:15.452Z,16.50
2022-09-22T08:41:56.730Z,16.50
2022-09-22T08:44:32.785Z,16.40
2022-09-22T08:47:01.738Z,16.40
2022-09-22T08:49:50.164Z,16.30
2022-09-22T08:52:32.225Z,16.30
2022-09-22T08:55:01.068Z,16.30
2022-09-22T08:57:56.185Z,16.20
2022-09-22T09:00:25.310Z,16.20
2022-09-22T09:03:21.133Z,16.20
2022-09-22T09:06:01.319Z,16.20
2022-09-22T09:08:36.393Z,16.10
2022-09-22T09:11:29.451Z,16.10
2022-09-22T09:14:08.329Z,16.10
2022-09-22T09:16:45.091Z,16.10
2022-09-22T09:19:39.312Z,16.10
2022-09-22T09:22:18.994Z,16.10
2022-09-22T09:27:41.668Z,16.10
2022-09-22T09:30:18.106Z,16.00
2022-09-22T09:32:59.282Z,16.00
2022-09-22T09:35:49.636Z,16.00
2022-09-22T09:38:26.362Z,16.00
2022-09-22T09:41:09.444Z,16.10
2022-09-22T09:43:37.267Z,16.10
2022-09-22T09:46:11.604Z,16.10
2022-09-22T09:48:58.829Z,16.10
2022-09-22T09:51:27.855Z,16.10
2022-09-22T09:53:57.619Z,16.20
2022-09-22T09:56:28.146Z,16.20
2022-09-22T09:59:19.555Z,16.30
2022-09-22T10:01:51.199Z,16.30
2022-09-22T10:04:27.405Z,16.30
2022-09-22T10:07:01.416Z,16.40
2022-09-22T10:09:30.200Z,16.40
2022-09-22T10:12:01.868Z,16.50
2022-09-22T10:14:33.335Z,16.50
2022-09-22T10:17:00.604Z,16.60
2022-09-22T10:19:32.702Z,16.60
2022-09-22T10:22:24.736Z,16.60
2022-09-22T10:25:03.770Z,16.60
2022-09-22T10:27:31.924Z,16.60
2022-09-22T10:30:11.509Z,16.70
2022-09-22T10:32:38.682Z,16.70
2022-09-22T10:36:06.443Z,16.80
2022-09-22T10:41:19.280Z,16.80
2022-09-22T10:44:20.932Z,16.90
2022-09-22T10:47:15.541Z,17.00
2022-09-22T10:50:36.742Z,17.00
2022-09-22T10:53:35.368Z,17.20
2022-09-22T10:56:20.866Z,17.30
2022-09-22T10:58:56.519Z,17.40
2022-09-22T11:01:45.511Z,17.50
2022-09-22T11:04:21.391Z,17.50
2022-09-22T11:07:28.384Z,17.40
2022-09-22T11:10:42.181Z,17.30
2022-09-22T11:13:15.165Z,17.30
2022-09-22T11:15:42.662Z,17.30
2022-09-22T11:18:51.327Z,17.30
2022-09-22T11:21:21.284Z,17.30
2022-09-22T11:24:00.824Z,17.30
2022-09-22T11:26:59.460Z,17.30
2022-09-22T11:29:35.377Z,17.40
2022-09-22T11:32:29.340Z,17.40
2022-09-22T11:34:56.188Z,17.50
2022-09-22T11:38:01.841Z,17.50
2022-09-22T11:40:38.328Z,17.50
2022-09-22T11:43:37.844Z,17.70
2022-09-22T11:46:34.806Z,17.70
2022-09-22T11:49:33.641Z,17.80
2022-09-22T11:52:58.369Z,17.80
2022-09-22T11:55:35.709Z,17.90
2022-09-22T11:58:15.211Z,17.90
2022-09-22T12:01:01.256Z,18.00
2022-09-22T12:03:40.469Z,18.00
2022-09-22T12:06:15.366Z,18.10
2022-09-22T12:11:22.746Z,18.30
2022-09-22T12:13:53.425Z,18.20
2022-09-22T12:16:25.655Z,18.30
2022-09-22T12:19:08.597Z,18.40
2022-09-22T12:21:52.806Z,18.50
2022-09-22T12:24:20.370Z,18.80
2022-09-22T12:26:49.570Z,18.90
2022-09-22T12:29:16.502Z,19.10
2022-09-22T12:31:47.298Z,19.20
2022-09-22T12:34:26.378Z,19.30
2022-09-22T12:37:00.255Z,19.40
2022-09-22T12:39:32.679Z,19.40
2022-09-22T12:42:15.846Z,19.50
2022-09-22T12:44:56.872Z,19.60
2022-09-22T12:47:34.388Z,19.60
2022-09-22T12:50:06.849Z,19.60
2022-09-22T12:52:56.691Z,19.50
2022-09-22T12:55:29.423Z,19.50
2022-09-22T12:58:03.573Z,19.50
2022-09-22T13:00:39.616Z,19.60
2022-09-22T13:03:24.930Z,19.50
2022-09-22T13:06:22.196Z,19.40
2022-09-22T13:08:49.062Z,19.40
2022-09-22T13:11:15.922Z,19.30
2022-09-22T13:13:46.781Z,19.20
2022-09-22T13:16:16.697Z,19.10
2022-09-22T13:18:56.846Z,19.10
2022-09-22T13:21:28.838Z,19.10
2022-09-22T13:23:57.563Z,19.10
2022-09-22T13:26:41.811Z,19.00
2022-09-22T13:29:16.128Z,19.00
2022-09-22T13:31:54.404Z,19.00
2022-09-22T13:34:37.164Z,19.10
2022-09-22T13:37:12.193Z,19.20
2022-09-22T13:39:47.084Z,19.20
2022-09-22T13:42:19.744Z,19.30
2022-09-22T13:44:52.171Z,19.20
2022-09-22T13:47:23.242Z,19.20
2022-09-22T13:50:02.675Z,19.10
2022-09-22T13:52:32.490Z,19.10
2022-09-22T13:55:16.807Z,19.10
2022-09-22T13:57:43.835Z,19.00
2022-09-22T14:01:11.614Z,19.00
2022-09-22T14:03:37.205Z,18.90
2022-09-22T14:06:08.430Z,18.90
2022-09-22T14:08:35.486Z,18.90
2022-09-22T14:11:04.952Z,18.90
2022-09-22T14:13:52.896Z,18.80
2022-09-22T14:16:37.244Z,18.70
2022-09-22T14:19:21.596Z,18.70
2022-09-22T14:21:56.319Z,18.70
2022-09-22T14:24:24.124Z,18.60
2022-09-22T14:27:04.528Z,18.60
2022-09-22T14:29:34.287Z,18.70
2022-09-22T14:32:09.536Z,18.70
2022-09-22T14:34:39.703Z,18.70
2022-09-22T14:37:28.731Z,18.70
2022-09-22T14:39:57.404Z,18.70
2022-09-22T14:42:30.810Z,18.70
2022-09-22T14:45:09.901Z,18.70
2022-09-22T14:47:41.735Z,18.80
2022-09-22T14:50:13.522Z,18.80
2022-09-22T14:53:09.545Z,18.80
2022-09-22T14:55:39.064Z,18.90
2022-09-22T14:58:14.475Z,18.80
2022-09-22T15:01:21.902Z,18.90
2022-09-22T15:04:12.737Z,18.90
2022-09-22T15:06:39.821Z,19.00
2022-09-22T15:09:12.849Z,19.00
2022-09-22T15:11:51.333Z,19.00
2022-09-22T15:14:32.080Z,19.00
2022-09-22T15:17:18.864Z,18.90
2022-09-22T15:19:50.349Z,18.90
2022-09-22T15:22:17.570Z,18.90
2022-09-22T15:24:44.555Z,19.00
2022-09-22T15:27:17.721Z,18.90
2022-09-22T15:29:45.616Z,19.00
2022-09-22T15:32:13.061Z,19.00
2022-09-22T15:34:44.741Z,19.10
2022-09-22T15:37:19.931Z,19.00
2022-09-22T15:39:46.810Z,19.00
2022-09-22T15:42:14.052Z,19.00
2022-09-22T15:44:41.157Z,18.90
2022-09-22T15:47:16.534Z,18.90
2022-09-22T15:49:44.942Z,18.90
2022-09-22T15:52:11.869Z,18.90
2022-09-22T15:54:38.753Z,18.90
2022-09-22T15:57:06.057Z,18.90
2022-09-22T15:59:33.694Z,18.80
2022-09-22T16:02:02.017Z,18.80
2022-09-22T16:04:33.506Z,18.80
2022-09-22T16:07:04.690Z,18.80
2022-09-22T16:09:31.602Z,18.80
2022-09-22T16:11:58.438Z,18.90
2022-09-22T16:14:25.404Z,18.90
2022-09-22T16:16:52.435Z,18.90
2022-09-22T16:19:20.128Z,18.80
2022-09-22T16:21:52.698Z,18.80
2022-09-22T16:24:22.113Z,18.70
2022-09-22T16:26:49.128Z,18.60
2022-09-22T16:29:15.982Z,18.60
2022-09-22T16:31:42.970Z,18.40
2022-09-22T16:34:10.650Z,18.20
2022-09-22T16:36:39.710Z,18.10
2022-09-22T16:39:21.557Z,18.00
2022-09-22T16:41:48.690Z,17.90
2022-09-22T16:44:16.085Z,17.70
2022-09-22T16:46:43.066Z,17.60
2022-09-22T16:49:12.747Z,17.50
2022-09-22T16:51:41.717Z,17.40
2022-09-22T16:54:13.168Z,17.20
2022-09-22T16:56:43.114Z,17.20
2022-09-22T16:59:11.411Z,17.10
2022-09-22T17:01:38.509Z,17.00
2022-09-22T17:04:07.420Z,16.90
2022-09-22T17:06:36.882Z,16.80
2022-09-22T17:09:05.786Z,16.70
2022-09-22T17:11:35.025Z,16.70
2022-09-22T17:14:22.089Z,16.60
2022-09-22T17:16:52.071Z,16.50
2022-09-22T17:19:21.718Z,16.40
2022-09-22T17:21:55.395Z,16.30
2022-09-22T17:24:24.237Z,16.10
2022-09-22T17:26:56.507Z,16.00
2022-09-22T17:29:29.830Z,16.00
2022-09-22T17:32:05.812Z,15.90
2022-09-22T17:34:39.261Z,15.80
2022-09-22T17:37:10.028Z,15.70
2022-09-22T17:39:37.069Z,15.60
2022-09-22T17:42:04.210Z,15.50
2022-09-22T17:44:33.547Z,15.50
2022-09-22T17:47:18.995Z,15.40
2022-09-22T17:50:04.378Z,15.30
2022-09-22T17:52:39.961Z,15.30
2022-09-22T17:55:19.130Z,15.20
2022-09-22T17:57:46.304Z,15.10
2022-09-22T18:00:21.098Z,15.00
2022-09-22T18:02:49.673Z,15.00
2022-09-22T18:05:19.628Z,14.90
2022-09-22T18:07:49.457Z,14.80
2022-09-22T18:10:19.628Z,14.80
2022-09-22T18:12:46.584Z,14.80
2022-09-22T18:15:13.863Z,14.70
2022-09-22T18:17:42.782Z,14.60
2022-09-22T18:20:18.207Z,14.60
2022-09-22T18:22:47.786Z,14.60
2022-09-22T18:25:25.434Z,14.50
2022-09-22T18:27:53.499Z,14.50
2022-09-22T18:30:20.560Z,14.50
2022-09-22T18:32:48.886Z,14.40
2022-09-22T18:35:16.353Z,14.40
2022-09-22T18:37:43.745Z,14.30
2022-09-22T18:40:12.247Z,14.60
2022-09-22T18:42:40.520Z,14.20
2022-09-22T18:45:07.804Z,14.20
2022-09-22T18:47:40.792Z,14.20
2022-09-22T18:50:08.259Z,14.10
2022-09-22T18:52:35.259Z,14.00
2022-09-22T18:55:04.737Z,14.00
2022-09-22T18:57:31.715Z,13.90
2022-09-22T19:00:00.347Z,13.90
2022-09-22T19:02:27.727Z,13.80
2022-09-22T19:04:54.881Z,13.80
2022-09-22T19:07:44.195Z,13.70
2022-09-22T19:10:18.795Z,13.70
2022-09-22T19:12:46.082Z,13.70
2022-09-22T19:15:16.507Z,13.60
2022-09-22T19:17:45.187Z,13.60
2022-09-22T19:20:23.967Z,13.50
2022-09-22T19:22:52.346Z,13.50
2022-09-22T19:25:21.662Z,13.50
2022-09-22T19:27:49.760Z,13.50
2022-09-22T19:30:20.562Z,13.50
2022-09-22T19:32:50.379Z,13.50
2022-09-22T19:35:17.496Z,13.50
2022-09-22T19:37:44.413Z,13.40
2022-09-22T19:40:13.829Z,13.40
2022-09-22T19:42:41.261Z,13.40
2022-09-22T19:45:09.129Z,13.30
2022-09-22T19:47:36.762Z,13.30
2022-09-22T19:50:06.471Z,13.20
2022-09-22T19:52:34.968Z,13.20
2022-09-22T19:55:02.241Z,13.20
2022-09-22T19:57:29.149Z,13.20
2022-09-22T19:59:56.417Z,13.10
2022-09-22T20:02:23.387Z,13.00
2022-09-22T20:04:50.536Z,13.00
2022-09-22T20:07:17.374Z,13.00
2022-09-22T20:09:44.209Z,13.10
2022-09-22T20:12:11.069Z,12.90
2022-09-22T20:14:37.973Z,12.90
2022-09-22T20:17:07.130Z,12.90
2022-09-22T20:19:40.219Z,12.90
2022-09-22T20:22:25.482Z,12.90
2022-09-22T20:24:57.228Z,13.20
2022-09-22T20:27:37.078Z,12.80
2022-09-22T20:30:04.598Z,12.80
2022-09-22T20:32:32.307Z,12.80
2022-09-22T20:34:59.337Z,12.70
2022-09-22T20:37:26.440Z,12.70
2022-09-22T20:39:53.584Z,12.70
2022-09-22T20:42:20.531Z,12.70
2022-09-22T20:44:49.048Z,12.70
2022-09-22T20:47:18.342Z,12.60
2022-09-22T20:49:50.621Z,12.60
2022-09-22T20:52:20.049Z,12.60
2022-09-22T20:54:47.636Z,12.50
2022-09-22T20:57:14.871Z,12.50
2022-09-22T20:59:45.487Z,12.50
2022-09-22T21:02:14.037Z,12.50
2022-09-22T21:04:41.483Z,12.40
2022-09-22T21:07:09.008Z,12.40
2022-09-22T21:09:54.358Z,12.40
2022-09-22T21:12:21.377Z,12.40
2022-09-22T21:14:48.744Z,12.40
2022-09-22T21:17:15.707Z,12.40
2022-09-22T21:19:43.339Z,12.30
2022-09-22T21:22:10.728Z,12.30
2022-09-22T21:24:37.798Z,12.20
2022-09-22T21:27:05.629Z,12.20
2022-09-22T21:29:32.568Z,12.20
2022-09-22T21:32:00.569Z,12.20
2022-09-22T21:34:27.713Z,12.20
2022-09-22T21:36:54.677Z,12.20
2022-09-22T21:39:21.627Z,12.20
2022-09-22T21:41:49.334Z,12.10
2022-09-22T21:44:16.328Z,12.10
2022-09-22T21:46:44.227Z,12.10
2022-09-22T21:49:11.538Z,12.00
2022-09-22T21:51:42.192Z,12.00
2022-09-22T21:54:15.243Z,12.00
2022-09-22T21:56:42.499Z,12.00
2022-09-22T21:59:11.513Z,12.00
2022-09-22T22:01:40.407Z,12.00
2022-09-22T22:04:08.322Z,12.00
2022-09-22T22:06:43.278Z,11.90
2022-09-22T22:09:17.782Z,11.90
2022-09-22T22:11:50.422Z,11.90
2022-09-22T22:14:19.559Z,11.90
2022-09-22T22:16:48.747Z,11.90
2022-09-22T22:19:20.029Z,11.80
2022-09-22T22:21:50.436Z,11.80
2022-09-22T22:24:29.577Z,11.80
2022-09-22T22:27:06.213Z,11.80
2022-09-22T22:29:38.595Z,11.80
2022-09-22T22:32:07.888Z,11.80
2022-09-22T22:34:35.286Z,11.70
2022-09-22T22:37:03.934Z,11.70
2022-09-22T22:39:31.339Z,11.60
2022-09-22T22:41:58.367Z,11.60
2022-09-22T22:44:25.343Z,11.60
2022-09-22T22:46:52.278Z,11.60
2022-09-22T22:49:20.192Z,11.60
2022-09-22T22:51:49.270Z,11.60
2022-09-22T22:54:16.335Z,11.60
2022-09-22T22:56:45.845Z,11.60
2022-09-22T22:59:15.930Z,11.60
2022-09-22T23:01:44.433Z,11.50
2022-09-22T23:04:12.181Z,11.50
2022-09-22T23:06:41.757Z,11.50
2022-09-22T23:09:12.723Z,11.40
2022-09-22T23:11:40.595Z,11.40
2022-09-22T23:14:11.414Z,11.40
2022-09-22T23:16:41.286Z,11.40
2022-09-22T23:19:12.240Z,11.40
2022-09-22T23:21:39.065Z,11.40
2022-09-22T23:24:06.618Z,11.30
2022-09-22T23:26:33.588Z,11.30
2022-09-22T23:29:01.477Z,11.30
2022-09-22T23:31:28.576Z,11.30
2022-09-22T23:33:57.569Z,11.30
2022-09-22T23:36:27.141Z,11.20
2022-09-22T23:39:03.941Z,11.20
2022-09-22T23:41:35.802Z,11.20
2022-09-22T23:44:03.677Z,11.20
2022-09-22T23:46:30.981Z,11.20
2022-09-22T23:49:00.236Z,11.20
2022-09-22T23:51:27.569Z,11.20
2022-09-22T23:53:54.992Z,11.20
2022-09-22T23:56:22.078Z,11.10
2022-09-22T23:58:50.189Z,11.10
